createdAt,value
2018-07-26T00:00:19.015Z,69.3
2018-07-26T00:01:20.413Z,70.1
2018-07-26T00:02:21.815Z,69.9
2018-07-26T00:03:23.211Z,71.1
2018-07-26T00:04:24.607Z,71.1
2018-07-26T00:05:26.004Z,70.8
2018-07-26T00:06:27.400Z,70.8
2018-07-26T00:07:28.795Z,70.2
2018-07-26T00:08:30.193Z,71.1
2018-07-26T00:09:31.591Z,70.5
2018-07-26T00:10:32.988Z,70.2
2018-07-26T00:11:34.385Z,70.8
2018-07-26T00:12:35.784Z,70.1
2018-07-26T00:13:37.201Z,70.6
2018-07-26T00:14:38.593Z,70.1
2018-07-26T00:15:39.990Z,70.2
2018-07-26T00:16:41.404Z,70.8
2018-07-26T00:17:42.798Z,70.6
2018-07-26T00:18:44.217Z,71.2
2018-07-26T00:19:45.712Z,71.2
2018-07-26T00:20:47.111Z,71.1
2018-07-26T00:21:48.508Z,70.7
2018-07-26T00:22:49.902Z,70.7
2018-07-26T00:23:51.299Z,70.3
2018-07-26T00:24:52.694Z,70.1
2018-07-26T00:25:54.093Z,69.8
2018-07-26T00:26:55.488Z,69.9
2018-07-26T00:27:56.885Z,70.3
2018-07-26T00:28:58.282Z,70.2
2018-07-26T00:29:59.675Z,70.5
2018-07-26T00:31:01.093Z,70.0
2018-07-26T00:32:02.518Z,69.9
2018-07-26T00:33:03.916Z,70.4
2018-07-26T00:34:05.312Z,70.5
2018-07-26T00:35:06.721Z,70.9
2018-07-26T00:36:08.118Z,71.4
2018-07-26T00:37:09.525Z,70.9
2018-07-26T00:38:10.921Z,71.4
2018-07-26T00:39:12.314Z,72.1
2018-07-26T00:40:13.718Z,72.4
2018-07-26T00:41:15.183Z,71.5
2018-07-26T00:42:16.508Z,72.1
2018-07-26T00:43:17.904Z,72.2
2018-07-26T00:44:19.297Z,72.5
2018-07-26T00:45:20.695Z,72.0
2018-07-26T00:46:22.095Z,72.6
2018-07-26T00:47:23.493Z,72.8
2018-07-26T00:48:24.893Z,71.9
2018-07-26T00:49:26.289Z,72.1
2018-07-26T00:50:27.683Z,72.3
2018-07-26T00:51:29.076Z,72.0
2018-07-26T00:52:30.477Z,72.2
2018-07-26T00:53:31.877Z,72.8
2018-07-26T00:54:33.277Z,72.4
2018-07-26T00:55:34.675Z,72.9
2018-07-26T00:56:36.069Z,73.0
2018-07-26T00:57:37.472Z,73.0
2018-07-26T00:58:38.915Z,73.5
2018-07-26T00:59:40.586Z,72.8
2018-07-26T01:00:42.010Z,72.9
2018-07-26T01:01:43.404Z,72.9
2018-07-26T01:02:44.803Z,73.4
2018-07-26T01:03:46.203Z,73.5
2018-07-26T01:04:47.607Z,73.1
2018-07-26T01:05:49.002Z,73.6
2018-07-26T01:06:50.396Z,73.3
2018-07-26T01:07:51.788Z,73.4
2018-07-26T01:08:53.184Z,74.2
2018-07-26T01:09:54.587Z,74.9
2018-07-26T01:10:55.987Z,74.9
2018-07-26T01:11:57.387Z,75.0
2018-07-26T01:12:58.784Z,74.6
2018-07-26T01:14:00.176Z,74.5
2018-07-26T01:15:01.573Z,74.9
2018-07-26T01:16:02.971Z,74.5
2018-07-26T01:17:04.365Z,74.3
2018-07-26T01:18:05.766Z,74.4
2018-07-26T01:19:07.165Z,73.8
2018-07-26T01:20:08.563Z,73.6
2018-07-26T01:21:09.968Z,74.0
2018-07-26T01:22:11.370Z,73.4
2018-07-26T01:23:12.802Z,73.4
2018-07-26T01:24:14.197Z,73.6
2018-07-26T01:25:15.599Z,73.7
2018-07-26T01:26:16.995Z,74.4
2018-07-26T01:27:18.394Z,74.5
2018-07-26T01:28:19.788Z,74.9
2018-07-26T01:29:21.178Z,75.2
2018-07-26T01:30:22.576Z,75.2
2018-07-26T01:31:23.974Z,75.6
2018-07-26T01:32:25.370Z,75.2
2018-07-26T01:33:26.765Z,74.6
2018-07-26T01:34:28.158Z,74.7
2018-07-26T01:35:29.563Z,75.4
2018-07-26T01:36:30.959Z,74.8
2018-07-26T01:37:32.356Z,74.7
2018-07-26T01:38:33.870Z,74.1
2018-07-26T01:39:35.298Z,73.9
2018-07-26T01:40:36.693Z,73.6
2018-07-26T01:41:38.093Z,73.7
2018-07-26T01:42:39.489Z,73.2
2018-07-26T01:43:40.885Z,73.2
2018-07-26T01:44:42.307Z,73.5
2018-07-26T01:45:43.708Z,72.9
2018-07-26T01:46:45.102Z,73.2
2018-07-26T01:47:46.502Z,73.3
2018-07-26T01:48:47.895Z,73.3
2018-07-26T01:49:49.290Z,72.9
2018-07-26T01:50:50.687Z,73.0
2018-07-26T01:51:52.083Z,73.5
2018-07-26T01:52:53.479Z,73.6
2018-07-26T01:53:54.873Z,73.0
2018-07-26T01:54:56.269Z,73.4
2018-07-26T01:55:57.665Z,73.5
2018-07-26T01:56:59.057Z,73.6
2018-07-26T01:58:00.455Z,74.1
2018-07-26T01:59:01.852Z,74.2
2018-07-26T02:00:03.247Z,74.4
2018-07-26T02:01:04.646Z,74.4
2018-07-26T02:02:06.045Z,74.7
2018-07-26T02:03:07.439Z,75.2
2018-07-26T02:04:08.831Z,74.9
2018-07-26T02:05:10.226Z,74.6
2018-07-26T02:06:11.622Z,74.9
2018-07-26T02:07:13.019Z,74.8
2018-07-26T02:08:14.484Z,75.4
2018-07-26T02:09:15.876Z,74.9
2018-07-26T02:10:17.269Z,75.1
2018-07-26T02:11:18.671Z,75.1
2018-07-26T02:12:20.069Z,75.1
2018-07-26T02:13:21.465Z,75.1
2018-07-26T02:14:22.870Z,75.4
2018-07-26T02:15:24.263Z,75.9
2018-07-26T02:16:25.660Z,75.7
2018-07-26T02:17:27.052Z,75.8
2018-07-26T02:18:28.521Z,75.4
2018-07-26T02:19:29.996Z,75.1
2018-07-26T02:20:31.399Z,75.4
2018-07-26T02:21:32.794Z,74.9
2018-07-26T02:22:34.192Z,75.2
2018-07-26T02:23:35.589Z,75.0
2018-07-26T02:24:36.982Z,75.0
2018-07-26T02:25:38.375Z,74.9
2018-07-26T02:26:39.769Z,75.1
2018-07-26T02:27:41.165Z,74.9
2018-07-26T02:28:42.594Z,74.7
2018-07-26T02:29:43.990Z,75.5
2018-07-26T02:30:45.397Z,75.4
2018-07-26T02:31:46.789Z,75.4
2018-07-26T02:32:48.173Z,75.2
2018-07-26T02:33:49.568Z,76.1
2018-07-26T02:34:50.965Z,76.1
2018-07-26T02:35:52.363Z,75.7
2018-07-26T02:36:53.849Z,76.0
2018-07-26T02:37:55.168Z,76.0
2018-07-26T02:38:56.566Z,76.0
2018-07-26T02:39:57.959Z,75.8
2018-07-26T02:40:59.353Z,75.9
2018-07-26T02:42:00.753Z,75.8
2018-07-26T02:43:02.185Z,76.1
2018-07-26T02:44:03.577Z,76.0
2018-07-26T02:45:04.971Z,75.9
2018-07-26T02:46:06.365Z,75.9
2018-07-26T02:47:07.759Z,76.4
2018-07-26T02:48:09.156Z,76.5
2018-07-26T02:49:10.593Z,76.7
2018-07-26T02:50:11.983Z,76.9
2018-07-26T02:51:13.380Z,77.1
2018-07-26T02:52:14.808Z,77.9
2018-07-26T02:53:16.201Z,77.5
2018-07-26T02:54:17.600Z,77.7
2018-07-26T02:55:18.995Z,78.0
2018-07-26T02:56:20.396Z,77.9
2018-07-26T02:57:21.793Z,78.5
2018-07-26T02:58:23.187Z,77.5
2018-07-26T02:59:24.728Z,77.7
2018-07-26T03:00:26.117Z,77.6
2018-07-26T03:01:27.512Z,77.2
2018-07-26T03:02:28.911Z,77.6
2018-07-26T03:03:30.363Z,77.4
2018-07-26T03:04:31.704Z,77.3
2018-07-26T03:05:33.101Z,77.3
2018-07-26T03:06:34.498Z,77.3
2018-07-26T03:07:35.895Z,77.3
2018-07-26T03:08:37.285Z,77.3
2018-07-26T03:09:38.738Z,77.6
2018-07-26T03:10:40.131Z,77.3
2018-07-26T03:11:41.525Z,77.3
2018-07-26T03:12:42.934Z,77.5
2018-07-26T03:13:44.323Z,77.2
2018-07-26T03:14:45.718Z,77.6
2018-07-26T03:15:47.125Z,77.6
2018-07-26T03:16:48.525Z,77.6
2018-07-26T03:17:49.920Z,77.0
2018-07-26T03:18:51.318Z,77.5
2018-07-26T03:19:52.721Z,77.4
2018-07-26T03:20:54.164Z,77.4
2018-07-26T03:21:55.510Z,77.6
2018-07-26T03:22:56.903Z,77.3
2018-07-26T03:23:58.298Z,77.3
2018-07-26T03:24:59.696Z,77.1
2018-07-26T03:26:01.089Z,77.5
2018-07-26T03:27:02.486Z,78.4
2018-07-26T03:28:03.879Z,77.3
2018-07-26T03:29:05.273Z,77.3
2018-07-26T03:30:06.668Z,77.5
2018-07-26T03:31:08.068Z,77.5
2018-07-26T03:32:09.464Z,78.0
2018-07-26T03:33:10.925Z,77.2
2018-07-26T03:34:12.325Z,77.7
2018-07-26T03:35:13.718Z,77.1
2018-07-26T03:36:15.119Z,77.8
2018-07-26T03:37:16.512Z,77.8
2018-07-26T03:38:17.907Z,77.6
2018-07-26T03:39:19.404Z,77.4
2018-07-26T03:40:20.811Z,77.6
2018-07-26T03:41:22.213Z,77.8
2018-07-26T03:42:23.608Z,77.3
2018-07-26T03:43:25.014Z,77.4
2018-07-26T03:44:26.399Z,77.9
2018-07-26T03:45:27.795Z,78.2
2018-07-26T03:46:29.197Z,78.3
2018-07-26T03:47:30.595Z,77.9
2018-07-26T03:48:31.995Z,77.9
2018-07-26T03:49:33.390Z,78.0
2018-07-26T03:50:34.793Z,78.0
2018-07-26T03:51:36.185Z,78.4
2018-07-26T03:52:37.642Z,77.7
2018-07-26T03:53:39.107Z,77.5
2018-07-26T03:54:40.494Z,78.1
2018-07-26T03:55:41.894Z,77.9
2018-07-26T03:56:43.346Z,78.2
2018-07-26T03:57:44.765Z,78.2
2018-07-26T03:58:46.141Z,78.1
2018-07-26T03:59:47.532Z,78.1
2018-07-26T04:00:48.932Z,78.7
2018-07-26T04:01:50.325Z,78.3
2018-07-26T04:02:51.729Z,77.9
2018-07-26T04:03:53.129Z,77.8
2018-07-26T04:04:54.527Z,77.6
2018-07-26T04:05:55.922Z,77.5
2018-07-26T04:06:57.322Z,76.9
2018-07-26T04:07:58.723Z,78.2
2018-07-26T04:09:00.122Z,78.2
2018-07-26T04:10:01.516Z,78.3
2018-07-26T04:11:02.918Z,78.2
2018-07-26T04:12:04.312Z,78.2
2018-07-26T04:13:05.708Z,78.1
2018-07-26T04:14:07.111Z,79.0
2018-07-26T04:15:08.506Z,78.5
2018-07-26T04:16:09.908Z,78.8
2018-07-26T04:17:11.354Z,78.3
2018-07-26T04:18:12.753Z,78.8
2018-07-26T04:19:14.240Z,78.7
2018-07-26T04:20:15.644Z,78.9
2018-07-26T04:21:17.045Z,78.2
2018-07-26T04:22:18.448Z,78.7
2018-07-26T04:23:19.852Z,78.3
2018-07-26T04:24:21.249Z,78.9
2018-07-26T04:25:22.648Z,78.7
2018-07-26T04:26:24.043Z,78.7
2018-07-26T04:27:25.448Z,78.5
2018-07-26T04:28:26.844Z,78.6
2018-07-26T04:29:28.243Z,78.6
2018-07-26T04:30:29.641Z,78.7
2018-07-26T04:31:31.050Z,78.5
2018-07-26T04:32:32.453Z,79.4
2018-07-26T04:33:33.849Z,79.5
2018-07-26T04:34:35.256Z,79.1
2018-07-26T04:35:36.656Z,79.1
2018-07-26T04:36:38.103Z,79.4
2018-07-26T04:37:39.480Z,79.4
2018-07-26T04:38:40.882Z,79.3
2018-07-26T04:39:42.278Z,79.2
2018-07-26T04:40:43.684Z,79.0
2018-07-26T04:41:45.082Z,79.4
2018-07-26T04:42:46.487Z,79.2
2018-07-26T04:43:47.888Z,79.4
2018-07-26T04:44:49.288Z,79.4
2018-07-26T04:45:50.694Z,79.4
2018-07-26T04:46:52.094Z,79.4
2018-07-26T04:47:53.491Z,78.5
2018-07-26T04:48:54.943Z,78.2
2018-07-26T04:49:56.287Z,77.5
2018-07-26T04:50:57.684Z,77.9
2018-07-26T04:51:59.084Z,77.2
2018-07-26T04:53:00.489Z,76.7
2018-07-26T04:54:01.882Z,76.5
2018-07-26T04:55:03.283Z,76.8
2018-07-26T04:56:04.691Z,75.9
2018-07-26T04:57:06.086Z,76.0
2018-07-26T04:58:07.491Z,76.0
2018-07-26T04:59:08.985Z,75.7
2018-07-26T05:00:10.385Z,75.8
2018-07-26T05:01:11.822Z,75.6
2018-07-26T05:02:13.217Z,75.6
2018-07-26T05:03:14.614Z,75.9
2018-07-26T05:04:16.017Z,75.5
2018-07-26T05:05:17.421Z,75.8
2018-07-26T05:06:18.817Z,75.9
2018-07-26T05:07:20.218Z,76.5
2018-07-26T05:08:21.616Z,76.5
2018-07-26T05:09:23.022Z,76.1
2018-07-26T05:10:24.447Z,76.0
2018-07-26T05:11:25.862Z,76.8
2018-07-26T05:12:27.265Z,75.7
2018-07-26T05:13:28.677Z,76.1
2018-07-26T05:14:30.080Z,76.1
2018-07-26T05:15:31.473Z,75.9
2018-07-26T05:16:32.872Z,76.1
2018-07-26T05:17:34.271Z,75.9
2018-07-26T05:18:35.713Z,75.9
2018-07-26T05:19:37.093Z,75.5
2018-07-26T05:20:38.497Z,75.0
2018-07-26T05:21:39.925Z,75.4
2018-07-26T05:22:41.418Z,75.1
2018-07-26T05:23:42.816Z,74.8
2018-07-26T05:24:44.231Z,74.4
2018-07-26T05:25:45.687Z,74.1
2018-07-26T05:26:47.084Z,73.6
2018-07-26T05:27:48.554Z,73.9
2018-07-26T05:28:49.907Z,73.7
2018-07-26T05:29:51.304Z,73.5
2018-07-26T05:30:52.757Z,73.3
2018-07-26T05:31:54.165Z,74.9
2018-07-26T05:32:55.553Z,74.9
2018-07-26T05:33:56.952Z,75.2
2018-07-26T05:34:58.381Z,74.7
2018-07-26T05:35:59.784Z,75.4
2018-07-26T05:37:01.187Z,75.2
2018-07-26T05:38:02.602Z,75.4
2018-07-26T05:39:04.166Z,75.2
2018-07-26T05:40:05.629Z,75.0
2018-07-26T05:41:07.046Z,74.9
2018-07-26T05:42:08.458Z,74.7
2018-07-26T05:43:09.918Z,74.9
2018-07-26T05:44:11.282Z,74.8
2018-07-26T05:45:12.901Z,74.9
2018-07-26T05:46:14.303Z,75.1
2018-07-26T05:47:15.699Z,75.0
2018-07-26T05:48:17.130Z,74.6
2018-07-26T05:49:18.780Z,75.3
2018-07-26T05:50:20.201Z,74.4
2018-07-26T05:51:21.600Z,74.3
2018-07-26T05:52:23.003Z,74.4
2018-07-26T05:53:24.437Z,74.6
2018-07-26T05:54:25.818Z,75.1
2018-07-26T05:55:27.910Z,75.3
2018-07-26T05:56:29.316Z,74.9
2018-07-26T05:57:30.725Z,74.9
2018-07-26T05:58:32.124Z,75.1
2018-07-26T05:59:33.518Z,75.2
2018-07-26T06:00:35.407Z,75.3
2018-07-26T06:01:36.807Z,75.3
2018-07-26T06:02:38.216Z,74.9
2018-07-26T06:03:39.900Z,75.2
2018-07-26T06:04:41.343Z,74.7
2018-07-26T06:05:42.825Z,74.7
2018-07-26T06:06:44.269Z,75.2
2018-07-26T06:07:45.675Z,75.1
2018-07-26T06:08:47.350Z,74.0
2018-07-26T06:09:48.719Z,74.0
2018-07-26T06:10:50.128Z,73.7
2018-07-26T06:11:51.527Z,73.6
2018-07-26T06:12:52.943Z,74.0
2018-07-26T06:13:54.551Z,73.4
2018-07-26T06:14:56.092Z,73.1
2018-07-26T06:15:57.478Z,72.8
2018-07-26T06:16:58.878Z,73.2
2018-07-26T06:18:00.279Z,72.4
2018-07-26T06:19:01.694Z,72.1
2018-07-26T06:20:03.097Z,72.4
2018-07-26T06:21:04.498Z,72.4
2018-07-26T06:22:05.900Z,71.2
2018-07-26T06:23:07.346Z,71.2
2018-07-26T06:24:08.709Z,70.8
2018-07-26T06:25:10.125Z,70.4
2018-07-26T06:26:11.544Z,70.6
2018-07-26T06:27:12.943Z,70.4
2018-07-26T06:28:14.398Z,70.4
2018-07-26T06:29:15.744Z,70.2
2018-07-26T06:30:17.149Z,69.5
2018-07-26T06:31:18.549Z,69.1
2018-07-26T06:32:19.952Z,68.5
2018-07-26T06:33:21.386Z,67.3
2018-07-26T06:34:22.751Z,66.8
2018-07-26T06:35:24.157Z,67.3
2018-07-26T06:36:25.554Z,66.9
2018-07-26T06:37:26.952Z,66.0
2018-07-26T06:38:28.354Z,65.4
2018-07-26T06:39:29.850Z,65.2
2018-07-26T06:40:31.215Z,64.5
2018-07-26T06:41:32.616Z,63.5
2018-07-26T06:42:34.033Z,63.2
2018-07-26T06:43:35.468Z,63.0
2018-07-26T06:44:36.868Z,62.8
2018-07-26T06:45:38.272Z,62.2
2018-07-26T06:46:39.718Z,62.3
2018-07-26T06:47:41.122Z,61.6
2018-07-26T06:48:42.537Z,61.6
2018-07-26T06:49:44.009Z,61.6
2018-07-26T06:50:45.412Z,61.6
2018-07-26T06:51:46.813Z,61.5
2018-07-26T06:52:48.222Z,61.6
2018-07-26T06:53:49.751Z,62.2
2018-07-26T06:54:51.196Z,62.2
2018-07-26T06:55:52.598Z,61.6
2018-07-26T06:56:53.999Z,61.8
2018-07-26T06:57:55.406Z,61.1
2018-07-26T06:58:56.830Z,60.2
2018-07-26T06:59:58.238Z,60.8
2018-07-26T07:00:59.647Z,60.8
2018-07-26T07:02:01.047Z,60.9
2018-07-26T07:03:02.447Z,60.7
2018-07-26T07:04:03.849Z,60.2
2018-07-26T07:05:05.248Z,59.9
2018-07-26T07:06:06.648Z,60.2
2018-07-26T07:07:08.076Z,60.8
2018-07-26T07:08:09.481Z,60.9
2018-07-26T07:09:10.882Z,61.0
2018-07-26T07:10:12.361Z,60.7
2018-07-26T07:11:13.694Z,60.7
2018-07-26T07:12:15.098Z,60.2
2018-07-26T07:13:16.503Z,59.4
2018-07-26T07:14:17.909Z,59.5
2018-07-26T07:15:19.314Z,59.4
2018-07-26T07:16:20.725Z,59.8
2018-07-26T07:17:22.127Z,59.4
2018-07-26T07:18:23.531Z,59.6
2018-07-26T07:19:24.936Z,59.8
2018-07-26T07:20:26.367Z,59.6
2018-07-26T07:21:27.738Z,59.4
2018-07-26T07:22:29.141Z,58.7
2018-07-26T07:23:30.556Z,58.7
2018-07-26T07:24:31.960Z,58.9
2018-07-26T07:25:33.365Z,58.5
2018-07-26T07:26:34.768Z,58.1
2018-07-26T07:27:36.194Z,57.9
2018-07-26T07:28:37.595Z,58.3
2018-07-26T07:29:38.997Z,57.8
2018-07-26T07:30:40.396Z,57.7
2018-07-26T07:31:41.795Z,57.7
2018-07-26T07:32:43.196Z,56.5
2018-07-26T07:33:44.621Z,56.6
2018-07-26T07:34:46.024Z,56.0
2018-07-26T07:35:47.424Z,56.5
2018-07-26T07:36:48.826Z,56.5
2018-07-26T07:37:50.232Z,57.0
2018-07-26T07:38:51.665Z,56.7
2018-07-26T07:39:53.071Z,56.1
2018-07-26T07:40:54.473Z,55.5
2018-07-26T07:41:55.878Z,55.5
2018-07-26T07:42:57.282Z,54.6
2018-07-26T07:43:58.684Z,54.5
2018-07-26T07:45:00.093Z,54.7
2018-07-26T07:46:01.504Z,54.2
2018-07-26T07:47:02.907Z,53.8
2018-07-26T07:48:04.309Z,53.4
2018-07-26T07:49:05.707Z,53.4
2018-07-26T07:50:07.113Z,53.3
2018-07-26T07:51:08.516Z,52.2
2018-07-26T07:52:09.921Z,52.2
2018-07-26T07:53:11.354Z,53.0
2018-07-26T07:54:12.753Z,52.1
2018-07-26T07:55:14.160Z,53.3
2018-07-26T07:56:15.574Z,51.2
2018-07-26T07:57:16.980Z,51.1
2018-07-26T07:58:18.385Z,50.6
2018-07-26T07:59:19.806Z,49.7
2018-07-26T08:00:21.206Z,50.9
2018-07-26T08:01:22.607Z,51.2
2018-07-26T08:02:24.012Z,50.5
2018-07-26T08:03:25.415Z,50.9
2018-07-26T08:04:26.823Z,51.0
2018-07-26T08:05:28.230Z,51.2
2018-07-26T08:06:29.633Z,51.6
2018-07-26T08:07:31.033Z,49.7
2018-07-26T08:08:32.438Z,49.6
2018-07-26T08:09:33.839Z,49.6
2018-07-26T08:10:35.244Z,49.4
2018-07-26T08:11:36.646Z,49.2
2018-07-26T08:12:38.068Z,50.2
2018-07-26T08:13:39.544Z,49.6
2018-07-26T08:14:41.000Z,49.2
2018-07-26T08:15:42.406Z,49.8
2018-07-26T08:16:43.811Z,49.2
2018-07-26T08:17:45.218Z,49.3
2018-07-26T08:18:46.626Z,49.3
2018-07-26T08:19:48.032Z,48.5
2018-07-26T08:20:49.434Z,48.0
2018-07-26T08:21:50.845Z,49.4
2018-07-26T08:22:52.249Z,48.9
2018-07-26T08:23:53.665Z,47.8
2018-07-26T08:24:55.066Z,47.7
2018-07-26T08:25:56.473Z,47.6
2018-07-26T08:26:57.882Z,48.6
2018-07-26T08:27:59.289Z,47.9
2018-07-26T08:29:00.709Z,47.1
2018-07-26T08:30:02.121Z,46.5
2018-07-26T08:31:03.512Z,46.2
2018-07-26T08:32:04.920Z,45.7
2018-07-26T08:33:06.322Z,45.0
2018-07-26T08:34:07.729Z,45.1
2018-07-26T08:35:09.138Z,44.7
2018-07-26T08:36:10.559Z,44.3
2018-07-26T08:37:11.967Z,45.0
2018-07-26T08:38:13.371Z,45.8
2018-07-26T08:39:14.777Z,45.3
2018-07-26T08:40:16.185Z,45.0
2018-07-26T08:41:17.592Z,43.9
2018-07-26T08:42:19.046Z,44.3
2018-07-26T08:43:20.447Z,44.1
2018-07-26T08:44:21.854Z,44.1
2018-07-26T08:45:23.262Z,43.2
2018-07-26T08:46:24.666Z,44.1
2018-07-26T08:47:26.069Z,44.9
2018-07-26T08:48:27.474Z,44.1
2018-07-26T08:49:28.876Z,44.7
2018-07-26T08:50:30.281Z,44.3
2018-07-26T08:51:31.698Z,43.1
2018-07-26T08:52:33.101Z,43.1
2018-07-26T08:53:34.637Z,42.5
2018-07-26T08:54:36.045Z,43.5
2018-07-26T08:55:37.455Z,43.8
2018-07-26T08:56:38.864Z,44.7
2018-07-26T08:57:40.275Z,42.9
2018-07-26T08:58:41.698Z,41.9
2018-07-26T08:59:43.103Z,41.7
2018-07-26T09:00:44.505Z,41.3
2018-07-26T09:01:45.916Z,42.5
2018-07-26T09:02:47.372Z,41.0
2018-07-26T09:03:48.745Z,41.0
2018-07-26T09:04:50.164Z,40.6
2018-07-26T09:05:51.565Z,40.1
2018-07-26T09:06:52.973Z,40.2
2018-07-26T09:07:54.375Z,40.2
2018-07-26T09:08:55.778Z,40.0
2018-07-26T09:09:57.210Z,41.6
2018-07-26T09:10:58.634Z,39.8
2018-07-26T09:12:00.005Z,40.2
2018-07-26T09:13:01.409Z,39.8
2018-07-26T09:14:02.816Z,40.7
2018-07-26T09:15:04.222Z,40.6
2018-07-26T09:16:05.636Z,40.6
2018-07-26T09:17:07.046Z,39.7
2018-07-26T09:18:08.447Z,39.9
2018-07-26T09:19:09.888Z,39.8
2018-07-26T09:20:11.292Z,38.8
2018-07-26T09:21:12.697Z,38.0
2018-07-26T09:22:14.100Z,37.8
2018-07-26T09:23:15.515Z,38.8
2018-07-26T09:24:16.925Z,39.1
2018-07-26T09:25:18.338Z,38.4
2018-07-26T09:26:19.831Z,38.8
2018-07-26T09:27:21.142Z,38.3
2018-07-26T09:28:22.549Z,36.8
2018-07-26T09:29:23.958Z,36.6
2018-07-26T09:30:25.364Z,35.6
2018-07-26T09:31:26.774Z,35.2
2018-07-26T09:32:28.237Z,35.5
2018-07-26T09:33:29.669Z,35.4
2018-07-26T09:34:31.073Z,37.8
2018-07-26T09:35:32.535Z,37.0
2018-07-26T09:36:33.896Z,36.8
2018-07-26T09:37:35.330Z,35.4
2018-07-26T09:38:36.749Z,34.8
2018-07-26T09:39:38.155Z,36.1
2018-07-26T09:40:39.557Z,36.1
2018-07-26T09:41:40.969Z,36.2
2018-07-26T09:42:42.377Z,35.6
2018-07-26T09:43:43.832Z,36.0
2018-07-26T09:44:45.216Z,35.6
2018-07-26T09:45:46.634Z,34.9
2018-07-26T09:46:48.045Z,34.6
2018-07-26T09:47:49.458Z,34.5
2018-07-26T09:48:50.867Z,34.9
2018-07-26T09:49:52.347Z,35.3
2018-07-26T09:50:53.695Z,36.0
2018-07-26T09:51:55.106Z,35.9
2018-07-26T09:52:56.530Z,34.1
2018-07-26T09:53:57.941Z,33.4
2018-07-26T09:54:59.355Z,33.8
2018-07-26T09:56:00.751Z,33.9
2018-07-26T09:57:02.155Z,33.7
2018-07-26T09:58:03.559Z,33.7
2018-07-26T09:59:04.970Z,34.5
2018-07-26T10:00:06.380Z,33.8
2018-07-26T10:01:07.787Z,34.3
2018-07-26T10:02:09.192Z,33.5
2018-07-26T10:03:10.596Z,34.3
2018-07-26T10:04:12.002Z,33.9
2018-07-26T10:05:13.413Z,32.6
2018-07-26T10:06:14.827Z,32.9
2018-07-26T10:07:16.271Z,31.1
2018-07-26T10:08:17.684Z,31.4
2018-07-26T10:09:19.097Z,32.0
2018-07-26T10:10:20.498Z,32.4
2018-07-26T10:11:21.971Z,30.9
2018-07-26T10:12:23.465Z,30.6
2018-07-26T10:13:24.875Z,31.3
2018-07-26T10:14:26.301Z,30.9
2018-07-26T10:15:27.713Z,31.2
2018-07-26T10:16:29.120Z,31.4
2018-07-26T10:17:30.520Z,31.2
2018-07-26T10:18:31.945Z,31.3
2018-07-26T10:19:33.355Z,31.5
2018-07-26T10:20:34.759Z,31.9
2018-07-26T10:21:36.167Z,31.0
2018-07-26T10:22:37.581Z,29.5
2018-07-26T10:23:38.992Z,29.8
2018-07-26T10:24:40.398Z,30.0
2018-07-26T10:25:41.807Z,29.7
2018-07-26T10:26:43.215Z,30.1
2018-07-26T10:27:44.670Z,31.3
2018-07-26T10:28:46.081Z,30.3
2018-07-26T10:29:47.495Z,29.3
2018-07-26T10:30:48.929Z,31.1
2018-07-26T10:31:50.340Z,29.9
2018-07-26T10:32:51.747Z,29.2
2018-07-26T10:33:53.155Z,28.2
2018-07-26T10:34:54.569Z,29.0
2018-07-26T10:35:55.978Z,27.4
2018-07-26T10:36:57.389Z,27.6
2018-07-26T10:37:58.796Z,27.6
2018-07-26T10:39:00.202Z,28.4
2018-07-26T10:40:01.610Z,28.2
2018-07-26T10:41:03.017Z,28.4
2018-07-26T10:42:04.427Z,28.2
2018-07-26T10:43:05.838Z,27.7
2018-07-26T10:44:07.258Z,28.0
2018-07-26T10:45:08.659Z,26.2
2018-07-26T10:46:10.085Z,27.6
2018-07-26T10:47:11.497Z,27.2
2018-07-26T10:48:12.927Z,27.9
2018-07-26T10:49:14.340Z,27.3
2018-07-26T10:50:15.753Z,27.4
2018-07-26T10:51:17.282Z,25.4
2018-07-26T10:52:18.691Z,25.9
2018-07-26T10:53:20.103Z,27.5
2018-07-26T10:54:21.510Z,27.3
2018-07-26T10:55:22.949Z,26.2
2018-07-26T10:56:24.356Z,26.7
2018-07-26T10:57:25.766Z,27.3
2018-07-26T10:58:27.179Z,26.8
2018-07-26T10:59:28.589Z,26.4
2018-07-26T11:00:29.998Z,27.1
2018-07-26T11:01:31.406Z,27.1
2018-07-26T11:02:32.815Z,26.2
2018-07-26T11:03:34.225Z,25.7
2018-07-26T11:04:35.637Z,25.5
2018-07-26T11:05:37.047Z,25.2
2018-07-26T11:06:38.455Z,24.5
2018-07-26T11:07:39.863Z,24.2
2018-07-26T11:08:41.313Z,23.8
2018-07-26T11:09:42.774Z,23.9
2018-07-26T11:10:44.145Z,23.4
2018-07-26T11:11:45.556Z,22.6
2018-07-26T11:12:47.003Z,22.6
2018-07-26T11:13:48.558Z,21.9
2018-07-26T11:14:49.969Z,22.7
2018-07-26T11:15:51.376Z,23.3
2018-07-26T11:16:52.796Z,22.8
2018-07-26T11:17:54.208Z,22.4
2018-07-26T11:18:55.632Z,21.9
2018-07-26T11:19:57.032Z,22.3
2018-07-26T11:20:58.445Z,22.1
2018-07-26T11:21:59.857Z,22.6
2018-07-26T11:23:01.276Z,21.7
2018-07-26T11:24:02.688Z,21.9
2018-07-26T11:25:04.103Z,22.3
2018-07-26T11:26:05.515Z,22.5
2018-07-26T11:27:06.947Z,21.8
2018-07-26T11:28:08.342Z,22.4
2018-07-26T11:29:09.797Z,21.7
2018-07-26T11:30:11.296Z,21.8
2018-07-26T11:31:12.708Z,20.6
2018-07-26T11:32:14.128Z,20.9
2018-07-26T11:33:15.542Z,21.8
2018-07-26T11:34:16.962Z,20.3
2018-07-26T11:35:18.384Z,19.7
2018-07-26T11:36:19.794Z,21.1
2018-07-26T11:37:21.205Z,20.8
2018-07-26T11:38:22.624Z,20.3
2018-07-26T11:39:24.041Z,20.7
2018-07-26T11:40:25.455Z,21.2
2018-07-26T11:41:26.906Z,21.3
2018-07-26T11:42:28.426Z,20.7
2018-07-26T11:43:29.771Z,20.0
2018-07-26T11:44:31.181Z,21.1
2018-07-26T11:45:32.595Z,21.1
2018-07-26T11:46:34.014Z,21.2
2018-07-26T11:47:35.426Z,20.7
2018-07-26T11:48:36.863Z,20.5
2018-07-26T11:49:38.287Z,20.1
2018-07-26T11:50:39.688Z,19.5
2018-07-26T11:51:41.192Z,20.1
2018-07-26T11:52:42.533Z,19.3
2018-07-26T11:53:43.931Z,19.8
2018-07-26T11:54:45.348Z,19.5
2018-07-26T11:55:46.769Z,19.0
2018-07-26T11:56:48.194Z,19.5
2018-07-26T11:57:49.601Z,21.0
2018-07-26T11:58:51.011Z,20.2
2018-07-26T11:59:52.424Z,19.2
2018-07-26T12:00:53.847Z,19.7
2018-07-26T12:01:55.265Z,20.1
2018-07-26T12:02:56.680Z,20.4
2018-07-26T12:03:58.091Z,19.7
2018-07-26T12:04:59.504Z,20.0
2018-07-26T12:06:00.917Z,18.1
2018-07-26T12:07:02.359Z,18.6
2018-07-26T12:08:03.778Z,19.8
2018-07-26T12:09:05.233Z,18.8
2018-07-26T12:10:06.645Z,19.8
2018-07-26T12:11:08.053Z,19.7
2018-07-26T12:12:09.466Z,19.8
2018-07-26T12:13:10.882Z,20.4
2018-07-26T12:14:12.325Z,20.0
2018-07-26T12:15:13.705Z,19.3
2018-07-26T12:16:15.132Z,19.6
2018-07-26T12:17:16.540Z,19.6
2018-07-26T12:18:17.948Z,20.5
2018-07-26T12:19:19.412Z,20.6
2018-07-26T12:20:20.827Z,20.6
2018-07-26T12:21:22.238Z,20.8
2018-07-26T12:22:23.649Z,18.9
2018-07-26T12:23:25.062Z,19.6
2018-07-26T12:24:26.474Z,19.2
2018-07-26T12:25:27.885Z,18.5
2018-07-26T12:26:29.300Z,19.6
2018-07-26T12:27:30.716Z,18.3
2018-07-26T12:28:32.130Z,19.2
2018-07-26T12:29:33.550Z,19.1
2018-07-26T12:30:34.961Z,17.6
2018-07-26T12:31:36.374Z,17.9
2018-07-26T12:32:37.787Z,18.4
2018-07-26T12:33:39.200Z,18.2
2018-07-26T12:34:40.612Z,17.8
2018-07-26T12:35:42.036Z,17.6
2018-07-26T12:36:43.441Z,18.3
2018-07-26T12:37:44.869Z,16.5
2018-07-26T12:38:46.272Z,16.6
2018-07-26T12:39:47.704Z,16.7
2018-07-26T12:40:49.115Z,17.8
2018-07-26T12:41:50.524Z,17.9
2018-07-26T12:42:51.938Z,18.2
2018-07-26T12:43:53.351Z,19.0
2018-07-26T12:44:54.763Z,18.4
2018-07-26T12:45:56.181Z,18.4
2018-07-26T12:46:57.593Z,19.2
2018-07-26T12:47:59.081Z,17.2
2018-07-26T12:49:00.482Z,17.9
2018-07-26T12:50:01.896Z,17.6
2018-07-26T12:51:03.316Z,17.7
2018-07-26T12:52:04.726Z,18.4
2018-07-26T12:53:06.152Z,18.0
2018-07-26T12:54:07.552Z,17.0
2018-07-26T12:55:08.961Z,17.4
2018-07-26T12:56:10.372Z,17.7
2018-07-26T12:57:11.785Z,17.9
2018-07-26T12:58:13.201Z,18.2
2018-07-26T12:59:14.614Z,19.4
2018-07-26T13:00:16.062Z,19.1
2018-07-26T13:01:17.473Z,17.8
2018-07-26T13:02:18.885Z,17.9
2018-07-26T13:03:20.296Z,17.3
2018-07-26T13:04:21.709Z,17.7
2018-07-26T13:05:23.127Z,18.3
2018-07-26T13:06:24.546Z,17.4
2018-07-26T13:07:25.982Z,17.5
2018-07-26T13:08:27.395Z,17.2
2018-07-26T13:09:28.824Z,18.1
2018-07-26T13:10:30.247Z,17.9
2018-07-26T13:11:31.674Z,17.6
2018-07-26T13:12:33.086Z,16.8
2018-07-26T13:13:34.501Z,17.5
2018-07-26T13:14:35.910Z,17.7
2018-07-26T13:15:37.324Z,17.0
2018-07-26T13:16:38.735Z,17.4
2018-07-26T13:17:40.148Z,17.5
2018-07-26T13:18:41.562Z,17.0
2018-07-26T13:19:42.982Z,17.0
2018-07-26T13:20:44.523Z,17.0
2018-07-26T13:21:45.822Z,17.1
2018-07-26T13:22:47.237Z,17.6
2018-07-26T13:23:48.650Z,16.8
2018-07-26T13:24:50.061Z,16.6
2018-07-26T13:25:51.578Z,17.1
2018-07-26T13:26:53.064Z,18.0
2018-07-26T13:27:54.478Z,16.5
2018-07-26T13:28:55.892Z,16.6
2018-07-26T13:29:57.304Z,16.9
2018-07-26T13:30:58.720Z,16.5
2018-07-26T13:32:00.135Z,17.3
2018-07-26T13:33:01.547Z,17.2
2018-07-26T13:34:02.962Z,17.3
2018-07-26T13:35:04.380Z,17.1
2018-07-26T13:36:05.793Z,17.5
2018-07-26T13:37:07.199Z,16.1